CheckWX is a tool to help pilots better visualize weather data.  It is not intended as a substitute for an official pre-flight weather briefing.

06:52:11 UTC

LYVR TAF
Vršac International Airport
Serbia
TAF LYVR 160500Z 1606/1706 13010KT CAVOK TX33/1613Z TN19/1703Z TEMPO 1622/1701 5000 TSRA SCT030CB BKN033 BECMG 1701/1703 01009KT

Jun-16@
06:00 UTC

Jun-16 @ 06:00 UTC

Jun-17@
01:00 UTC

Jun-17 @ 01:00 UTC

TAF LYVR 160500Z 1606/1706 13010KT CAVOK TX33/1613Z TN19/1703Z
Wind
  • 130° at 10 KTS
Cloud Levels
  • No significant clouds

Jun-16@
22:00 UTC

Jun-16 @ 22:00 UTC

Jun-17@
01:00 UTC

Jun-17 @ 01:00 UTC

TEMPO 1622/1701 5000 TSRA SCT030CB BKN033

Temporary

Temporary Changes expected for less than half the time period

Conditions
Thunderstorm, Rain
Cloud Levels
  • Scattered at 3,000' AGL
  • Broken at 3,300' AGL

Jun-17@
01:00 UTC

Jun-17 @ 01:00 UTC

Jun-17@
06:00 UTC

Jun-17 @ 06:00 UTC

BECMG 1701/1703 01009KT

Becoming

Becoming Conditions expected by Mon, Jun 17, 2019 @ 03:00 UTC

Wind
  • 010° at 9 KTS
Cloud Levels
  • No significant clouds